Brown Field Municipal Airport San Diego US
ICAO: KSDM
IATA: SDM
Category: Medium
Scheduled Services: No

Elevation: 526 ft
TransAlt. 18000 ft.

Airport Communications:
SOCAL APP:124.35
ATIS:132.35
CLNC DEL:124.4
CTAF:126.5
SOCAL DEP:125.15
GND:124.4
TWR:126.5
UNICOM:122.95

KSDM Zoom In..

Runways:

(A) RW 08L length 7972 ft width 150 ft
---- / hdg 82

(B) RW 08R length 3180 ft width 150 ft
---- / hdg 82

(C) RW 26L length 3180 ft width 150 ft
---- / hdg 262

(D) RW 26R length 7972 ft width 150 ft
---- / hdg 262

Location; KSDM
Day. 06 / Time. 05.53 Zulu
* Altimeter: 29.94
* Temperature: 17° c. 62.6°f.
* Wind from: 250° Speed 03 kn.
Dewpoint: 14° c.
Visibility: 10 Statute Miles.
Clouds: Overcast 1100 ft.

KSDM 060553Z AUTO 25003KT 10SM OVC011 17/14 A2994 RMK AO2 SLP135 T01720144 10217 20167 51006

Going to: --> -->


Wind From 250°
Speed 03 kn.

 
 
jpsmedia worldairports.se 2020   terms of use